sensor_id;sensor_type;location;lat;lon;timestamp;pressure;altitude;pressure_sealevel;temperature;humidity
66627;BME280;53498;50.422;14.912;2023-06-22T00:01:16;99225.53;;;21.97;96.68
66627;BME280;53498;50.422;14.912;2023-06-22T00:03:45;99242.34;;;21.96;95.74
66627;BME280;53498;50.422;14.912;2023-06-22T00:06:10;99236.13;;;21.97;100.00
66627;BME280;53498;50.422;14.912;2023-06-22T00:08:36;99242.09;;;21.82;96.40
66627;BME280;53498;50.422;14.912;2023-06-22T00:11:01;99252.56;;;21.85;96.17
66627;BME280;53498;50.422;14.912;2023-06-22T00:13:27;99245.59;;;21.82;97.41
66627;BME280;53498;50.422;14.912;2023-06-22T00:15:53;99247.53;;;21.79;99.83
66627;BME280;53498;50.422;14.912;2023-06-22T00:18:18;99247.66;;;21.76;100.00
66627;BME280;53498;50.422;14.912;2023-06-22T00:20:44;99246.03;;;21.71;100.00
66627;BME280;53498;50.422;14.912;2023-06-22T00:23:11;99250.69;;;21.66;97.12
66627;BME280;53498;50.422;14.912;2023-06-22T00:25:37;99251.81;;;21.61;98.25
66627;BME280;53498;50.422;14.912;2023-06-22T00:28:03;99255.56;;;21.55;99.24
66627;BME280;53498;50.422;14.912;2023-06-22T00:30:30;99261.84;;;21.53;97.73
66627;BME280;53498;50.422;14.912;2023-06-22T00:32:56;99254.56;;;21.58;100.00
66627;BME280;53498;50.422;14.912;2023-06-22T00:35:22;99263.59;;;21.54;99.14
66627;BME280;53498;50.422;14.912;2023-06-22T00:37:48;99266.34;;;21.51;99.49
66627;BME280;53498;50.422;14.912;2023-06-22T00:40:13;99260.25;;;21.48;100.00
66627;BME280;53498;50.422;14.912;2023-06-22T00:42:40;99264.94;;;21.42;99.43
66627;BME280;53498;50.422;14.912;2023-06-22T00:45:07;99263.22;;;21.41;100.00
66627;BME280;53498;50.422;14.912;2023-06-22T00:47:36;99267.94;;;21.33;100.00
66627;BME280;53498;50.422;14.912;2023-06-22T00:50:03;99260.13;;;21.30;100.00
66627;BME280;53498;50.422;14.912;2023-06-22T00:52:32;99266.50;;;21.24;100.00
66627;BME280;53498;50.422;14.912;2023-06-22T00:55:01;99273.72;;;21.20;100.00
66627;BME280;53498;50.422;14.912;2023-06-22T00:57:27;99272.41;;;21.09;100.00
66627;BME280;53498;50.422;14.912;2023-06-22T00:59:54;99271.63;;;21.07;100.00
66627;BME280;53498;50.422;14.912;2023-06-22T01:02:20;99266.94;;;20.91;100.00
66627;BME280;53498;50.422;14.912;2023-06-22T01:04:48;99265.66;;;21.01;100.00
66627;BME280;53498;50.422;14.912;2023-06-22T01:09:57;99266.72;;;20.97;100.00
66627;BME280;53498;50.422;14.912;2023-06-22T01:12:26;99266.00;;;20.92;100.00
66627;BME280;53498;50.422;14.912;2023-06-22T01:15:04;99259.38;;;20.82;100.00
66627;BME280;53498;50.422;14.912;2023-06-22T01:17:34;99261.19;;;20.80;100.00
66627;BME280;53498;50.422;14.912;2023-06-22T01:20:03;99257.66;;;20.81;100.00
66627;BME280;53498;50.422;14.912;2023-06-22T01:22:33;99258.63;;;20.78;100.00
66627;BME280;53498;50.422;14.912;2023-06-22T01:25:19;99251.72;;;20.74;100.00
66627;BME280;53498;50.422;14.912;2023-06-22T01:30:20;99252.38;;;20.58;100.00
66627;BME280;53498;50.422;14.912;2023-06-22T01:32:48;99251.63;;;20.54;100.00
66627;BME280;53498;50.422;14.912;2023-06-22T01:35:14;99252.50;;;20.54;100.00
66627;BME280;53498;50.422;14.912;2023-06-22T01:37:41;99256.06;;;20.53;100.00
66627;BME280;53498;50.422;14.912;2023-06-22T01:40:07;99261.34;;;20.53;100.00
66627;BME280;53498;50.422;14.912;2023-06-22T01:42:35;99258.41;;;20.61;100.00
66627;BME280;53498;50.422;14.912;2023-06-22T01:45:01;99246.59;;;20.46;100.00
66627;BME280;53498;50.422;14.912;2023-06-22T01:47:28;99250.00;;;20.50;100.00
66627;BME280;53498;50.422;14.912;2023-06-22T01:49:54;99251.94;;;20.21;100.00
66627;BME280;53498;50.422;14.912;2023-06-22T01:52:20;99253.25;;;20.09;100.00
66627;BME280;53498;50.422;14.912;2023-06-22T01:54:46;99255.88;;;20.09;100.00
66627;BME280;53498;50.422;14.912;2023-06-22T01:57:12;99248.06;;;20.06;100.00
66627;BME280;53498;50.422;14.912;2023-06-22T02:00:08;99262.38;;;19.99;100.00
66627;BME280;53498;50.422;14.912;2023-06-22T02:02:43;99258.97;;;19.97;100.00
66627;BME280;53498;50.422;14.912;2023-06-22T02:05:10;99258.31;;;20.16;100.00
66627;BME280;53498;50.422;14.912;2023-06-22T02:07:47;99257.84;;;20.28;100.00
66627;BME280;53498;50.422;14.912;2023-06-22T02:10:16;99261.19;;;20.33;100.00
66627;BME280;53498;50.422;14.912;2023-06-22T02:12:45;99264.00;;;20.28;100.00
66627;BME280;53498;50.422;14.912;2023-06-22T02:15:12;99257.75;;;20.31;100.00
66627;BME280;53498;50.422;14.912;2023-06-22T02:17:42;99266.69;;;20.27;100.00
66627;BME280;53498;50.422;14.912;2023-06-22T02:20:14;99265.09;;;20.23;100.00
66627;BME280;53498;50.422;14.912;2023-06-22T02:22:40;99259.91;;;20.20;100.00
66627;BME280;53498;50.422;14.912;2023-06-22T02:25:06;99264.22;;;19.97;100.00
66627;BME280;53498;50.422;14.912;2023-06-22T02:27:32;99270.44;;;19.96;100.00
66627;BME280;53498;50.422;14.912;2023-06-22T02:29:57;99264.97;;;20.01;100.00
66627;BME280;53498;50.422;14.912;2023-06-22T02:32:23;99269.31;;;20.03;100.00
66627;BME280;53498;50.422;14.912;2023-06-22T02:34:48;99267.44;;;20.05;100.00
66627;BME280;53498;50.422;14.912;2023-06-22T02:37:14;99264.03;;;20.03;100.00
66627;BME280;53498;50.422;14.912;2023-06-22T02:39:40;99258.88;;;19.99;100.00
66627;BME280;53498;50.422;14.912;2023-06-22T02:42:06;99272.84;;;20.02;100.00
66627;BME280;53498;50.422;14.912;2023-06-22T02:44:31;99261.50;;;20.00;100.00
66627;BME280;53498;50.422;14.912;2023-06-22T02:46:58;99266.88;;;19.97;100.00
66627;BME280;53498;50.422;14.912;2023-06-22T02:49:23;99277.34;;;20.00;100.00
66627;BME280;53498;50.422;14.912;2023-06-22T02:51:49;99257.81;;;20.04;100.00
66627;BME280;53498;50.422;14.912;2023-06-22T02:54:14;99254.09;;;20.10;100.00
66627;BME280;53498;50.422;14.912;2023-06-22T02:56:40;99266.22;;;20.16;100.00
66627;BME280;53498;50.422;14.912;2023-06-22T02:59:13;99260.94;;;20.16;100.00
66627;BME280;53498;50.422;14.912;2023-06-22T03:01:39;99256.34;;;20.21;100.00
66627;BME280;53498;50.422;14.912;2023-06-22T03:04:07;99259.91;;;20.20;100.00
66627;BME280;53498;50.422;14.912;2023-06-22T03:06:34;99262.63;;;20.18;100.00
66627;BME280;53498;50.422;14.912;2023-06-22T03:09:01;99265.38;;;20.15;100.00
66627;BME280;53498;50.422;14.912;2023-06-22T03:11:30;99264.34;;;20.19;100.00
66627;BME280;53498;50.422;14.912;2023-06-22T03:13:56;99267.72;;;20.23;100.00
66627;BME280;53498;50.422;14.912;2023-06-22T03:16:21;99255.59;;;20.17;100.00
66627;BME280;53498;50.422;14.912;2023-06-22T03:18:47;99260.88;;;20.17;100.00
66627;BME280;53498;50.422;14.912;2023-06-22T03:21:13;99259.16;;;20.16;100.00
66627;BME280;53498;50.422;14.912;2023-06-22T03:23:41;99265.41;;;20.14;100.00
66627;BME280;53498;50.422;14.912;2023-06-22T03:26:08;99261.84;;;20.15;100.00
66627;BME280;53498;50.422;14.912;2023-06-22T03:28:33;99261.81;;;20.16;100.00
66627;BME280;53498;50.422;14.912;2023-06-22T03:30:59;99263.81;;;20.09;100.00
66627;BME280;53498;50.422;14.912;2023-06-22T03:33:25;99268.34;;;20.06;100.00
66627;BME280;53498;50.422;14.912;2023-06-22T03:35:51;99270.09;;;20.05;100.00
66627;BME280;53498;50.422;14.912;2023-06-22T03:38:17;99266.06;;;19.95;100.00
66627;BME280;53498;50.422;14.912;2023-06-22T03:40:43;99270.25;;;20.01;100.00
66627;BME280;53498;50.422;14.912;2023-06-22T03:43:08;99275.44;;;20.04;100.00
66627;BME280;53498;50.422;14.912;2023-06-22T03:45:34;99281.38;;;20.10;100.00
66627;BME280;53498;50.422;14.912;2023-06-22T03:48:00;99270.06;;;20.07;100.00
66627;BME280;53498;50.422;14.912;2023-06-22T03:50:27;99279.44;;;20.16;100.00
66627;BME280;53498;50.422;14.912;2023-06-22T03:52:52;99273.13;;;20.20;100.00
66627;BME280;53498;50.422;14.912;2023-06-22T03:55:21;99272.28;;;20.18;100.00
66627;BME280;53498;50.422;14.912;2023-06-22T03:57:46;99276.50;;;20.23;100.00
66627;BME280;53498;50.422;14.912;2023-06-22T04:00:13;99284.38;;;20.25;100.00
66627;BME280;53498;50.422;14.912;2023-06-22T04:02:38;99282.94;;;20.40;100.00
66627;BME280;53498;50.422;14.912;2023-06-22T04:05:04;99283.56;;;20.46;100.00
66627;BME280;53498;50.422;14.912;2023-06-22T04:07:30;99284.19;;;20.54;100.00
66627;BME280;53498;50.422;14.912;2023-06-22T04:09:56;99277.94;;;20.57;100.00
66627;BME280;53498;50.422;14.912;2023-06-22T04:12:21;99277.88;;;20.59;100.00
66627;BME280;53498;50.422;14.912;2023-06-22T04:14:47;99273.78;;;20.50;100.00
66627;BME280;53498;50.422;14.912;2023-06-22T04:17:12;99284.28;;;20.53;100.00
66627;BME280;53498;50.422;14.912;2023-06-22T04:19:40;99286.63;;;20.61;100.00
66627;BME280;53498;50.422;14.912;2023-06-22T04:22:06;99290.06;;;20.63;100.00
66627;BME280;53498;50.422;14.912;2023-06-22T04:24:35;99279.50;;;20.63;100.00
66627;BME280;53498;50.422;14.912;2023-06-22T04:27:01;99280.75;;;20.76;100.00
66627;BME280;53498;50.422;14.912;2023-06-22T04:29:29;99281.38;;;20.83;100.00
66627;BME280;53498;50.422;14.912;2023-06-22T04:31:56;99277.44;;;20.93;100.00
66627;BME280;53498;50.422;14.912;2023-06-22T04:34:24;99286.81;;;21.01;100.00
66627;BME280;53498;50.422;14.912;2023-06-22T04:36:51;99286.56;;;21.08;100.00
66627;BME280;53498;50.422;14.912;2023-06-22T04:39:17;99281.84;;;21.16;100.00
66627;BME280;53498;50.422;14.912;2023-06-22T04:41:44;99276.25;;;21.23;100.00
66627;BME280;53498;50.422;14.912;2023-06-22T04:44:14;99282.28;;;21.27;100.00
66627;BME280;53498;50.422;14.912;2023-06-22T04:47:00;99278.63;;;21.30;100.00
66627;BME280;53498;50.422;14.912;2023-06-22T04:49:28;99278.88;;;21.47;100.00
66627;BME280;53498;50.422;14.912;2023-06-22T04:51:58;99277.34;;;21.62;100.00
66627;BME280;53498;50.422;14.912;2023-06-22T04:54:23;99267.63;;;21.62;100.00
66627;BME280;53498;50.422;14.912;2023-06-22T04:56:49;99267.03;;;21.76;100.00
66627;BME280;53498;50.422;14.912;2023-06-22T04:59:27;99271.53;;;21.74;100.00
66627;BME280;53498;50.422;14.912;2023-06-22T05:01:59;99276.03;;;21.92;100.00
66627;BME280;53498;50.422;14.912;2023-06-22T05:04:26;99271.78;;;21.68;100.00
66627;BME280;53498;50.422;14.912;2023-06-22T05:06:54;99266.69;;;21.84;100.00
66627;BME280;53498;50.422;14.912;2023-06-22T05:09:23;99276.84;;;21.94;100.00
66627;BME280;53498;50.422;14.912;2023-06-22T05:11:50;99277.28;;;21.84;100.00
66627;BME280;53498;50.422;14.912;2023-06-22T05:14:17;99274.66;;;22.04;100.00
66627;BME280;53498;50.422;14.912;2023-06-22T05:16:43;99278.16;;;22.05;100.00
66627;BME280;53498;50.422;14.912;2023-06-22T05:19:10;99274.41;;;22.10;100.00
66627;BME280;53498;50.422;14.912;2023-06-22T05:21:35;99279.63;;;22.32;100.00
66627;BME280;53498;50.422;14.912;2023-06-22T05:24:01;99286.19;;;22.24;100.00
66627;BME280;53498;50.422;14.912;2023-06-22T05:26:32;99293.47;;;22.18;100.00
66627;BME280;53498;50.422;14.912;2023-06-22T05:29:00;99300.38;;;22.23;100.00
66627;BME280;53498;50.422;14.912;2023-06-22T05:31:26;99286.91;;;22.27;100.00
66627;BME280;53498;50.422;14.912;2023-06-22T05:33:54;99299.41;;;22.25;100.00
66627;BME280;53498;50.422;14.912;2023-06-22T05:36:19;99306.09;;;22.53;100.00
66627;BME280;53498;50.422;14.912;2023-06-22T05:38:47;99313.84;;;22.57;98.84
66627;BME280;53498;50.422;14.912;2023-06-22T05:41:12;99320.25;;;22.72;99.41
66627;BME280;53498;50.422;14.912;2023-06-22T05:43:38;99322.28;;;22.86;98.17
66627;BME280;53498;50.422;14.912;2023-06-22T05:46:04;99327.00;;;22.79;98.10
66627;BME280;53498;50.422;14.912;2023-06-22T05:48:30;99326.34;;;22.93;97.59
66627;BME280;53498;50.422;14.912;2023-06-22T05:50:56;99334.34;;;23.12;97.33
66627;BME280;53498;50.422;14.912;2023-06-22T05:53:22;99339.22;;;23.21;95.58
66627;BME280;53498;50.422;14.912;2023-06-22T05:55:47;99345.66;;;23.35;94.15
66627;BME280;53498;50.422;14.912;2023-06-22T05:58:13;99345.66;;;22.97;94.88
66627;BME280;53498;50.422;14.912;2023-06-22T06:00:40;99357.59;;;23.26;94.54
66627;BME280;53498;50.422;14.912;2023-06-22T06:03:09;99371.16;;;23.75;92.66
66627;BME280;53498;50.422;14.912;2023-06-22T06:05:36;99382.56;;;24.31;89.38
66627;BME280;53498;50.422;14.912;2023-06-22T06:08:03;99382.03;;;24.92;85.25
66627;BME280;53498;50.422;14.912;2023-06-22T06:10:33;99375.94;;;26.31;80.16
66627;BME280;53498;50.422;14.912;2023-06-22T06:12:59;99366.59;;;26.68;75.08
66627;BME280;53498;50.422;14.912;2023-06-22T06:15:27;99364.56;;;27.43;71.45
66627;BME280;53498;50.422;14.912;2023-06-22T06:17:53;99358.19;;;27.03;71.97
66627;BME280;53498;50.422;14.912;2023-06-22T06:20:21;99342.06;;;26.47;73.86
66627;BME280;53498;50.422;14.912;2023-06-22T06:22:48;99331.03;;;26.82;71.28
66627;BME280;53498;50.422;14.912;2023-06-22T06:25:14;99330.41;;;26.64;72.64
66627;BME280;53498;50.422;14.912;2023-06-22T06:27:44;99344.66;;;26.63;73.06
66627;BME280;53498;50.422;14.912;2023-06-22T06:30:11;99335.97;;;26.45;71.93
66627;BME280;53498;50.422;14.912;2023-06-22T06:32:37;99338.75;;;27.01;68.03
66627;BME280;53498;50.422;14.912;2023-06-22T06:35:08;99337.91;;;27.15;70.32
66627;BME280;53498;50.422;14.912;2023-06-22T06:37:39;99348.50;;;26.59;69.80
66627;BME280;53498;50.422;14.912;2023-06-22T06:40:08;99357.56;;;26.71;70.42
66627;BME280;53498;50.422;14.912;2023-06-22T06:42:54;99360.22;;;26.71;70.99
66627;BME280;53498;50.422;14.912;2023-06-22T06:45:21;99352.09;;;26.72;70.02
66627;BME280;53498;50.422;14.912;2023-06-22T06:47:51;99348.00;;;26.08;72.61
66627;BME280;53498;50.422;14.912;2023-06-22T06:50:17;99348.06;;;25.76;74.68
66627;BME280;53498;50.422;14.912;2023-06-22T06:52:44;99341.94;;;25.90;74.00
66627;BME280;53498;50.422;14.912;2023-06-22T06:55:10;99344.81;;;25.39;76.92
66627;BME280;53498;50.422;14.912;2023-06-22T06:57:40;99343.44;;;25.48;77.18
66627;BME280;53498;50.422;14.912;2023-06-22T07:00:11;99336.28;;;25.65;78.33
66627;BME280;53498;50.422;14.912;2023-06-22T07:02:39;99332.53;;;25.99;76.92
66627;BME280;53498;50.422;14.912;2023-06-22T07:05:06;99324.44;;;26.00;77.53
66627;BME280;53498;50.422;14.912;2023-06-22T07:07:32;99320.00;;;25.85;76.05
66627;BME280;53498;50.422;14.912;2023-06-22T07:09:58;99316.84;;;26.08;77.56
66627;BME280;53498;50.422;14.912;2023-06-22T07:12:24;99310.03;;;25.73;76.33
66627;BME280;53498;50.422;14.912;2023-06-22T07:14:52;99315.28;;;25.74;76.97
66627;BME280;53498;50.422;14.912;2023-06-22T07:17:18;99317.75;;;25.93;74.29
66627;BME280;53498;50.422;14.912;2023-06-22T07:19:43;99322.25;;;25.93;76.28
66627;BME280;53498;50.422;14.912;2023-06-22T07:22:09;99313.22;;;26.10;73.93
66627;BME280;53498;50.422;14.912;2023-06-22T07:24:34;99310.97;;;25.57;75.59
66627;BME280;53498;50.422;14.912;2023-06-22T07:27:00;99314.53;;;25.56;76.31
66627;BME280;53498;50.422;14.912;2023-06-22T07:29:25;99312.13;;;26.14;74.38
66627;BME280;53498;50.422;14.912;2023-06-22T07:31:52;99300.53;;;26.43;71.25
66627;BME280;53498;50.422;14.912;2023-06-22T07:34:18;99303.97;;;26.45;73.17
66627;BME280;53498;50.422;14.912;2023-06-22T07:36:44;99300.66;;;26.56;72.25
66627;BME280;53498;50.422;14.912;2023-06-22T07:39:11;99299.91;;;27.10;70.69
66627;BME280;53498;50.422;14.912;2023-06-22T07:41:39;99289.94;;;26.85;71.49
66627;BME280;53498;50.422;14.912;2023-06-22T07:44:05;99297.31;;;27.37;70.46
66627;BME280;53498;50.422;14.912;2023-06-22T07:46:32;99284.75;;;27.25;69.76
66627;BME280;53498;50.422;14.912;2023-06-22T07:48:57;99287.03;;;26.61;72.61
66627;BME280;53498;50.422;14.912;2023-06-22T07:51:23;99280.13;;;26.85;71.73
66627;BME280;53498;50.422;14.912;2023-06-22T07:53:49;99281.34;;;27.08;71.48
66627;BME280;53498;50.422;14.912;2023-06-22T07:56:15;99271.47;;;27.23;69.46
66627;BME280;53498;50.422;14.912;2023-06-22T07:58:47;99267.03;;;27.09;69.34
66627;BME280;53498;50.422;14.912;2023-06-22T08:01:16;99256.69;;;27.32;69.53
66627;BME280;53498;50.422;14.912;2023-06-22T08:03:42;99255.66;;;27.47;68.16
66627;BME280;53498;50.422;14.912;2023-06-22T08:06:09;99257.06;;;27.53;67.23
66627;BME280;53498;50.422;14.912;2023-06-22T08:08:35;99253.91;;;27.33;68.10
66627;BME280;53498;50.422;14.912;2023-06-22T08:11:01;99247.81;;;26.90;70.19
66627;BME280;53498;50.422;14.912;2023-06-22T08:13:27;99253.63;;;26.96;69.97
66627;BME280;53498;50.422;14.912;2023-06-22T08:15:52;99253.38;;;27.14;72.23
66627;BME280;53498;50.422;14.912;2023-06-22T08:18:18;99248.66;;;27.59;70.79
66627;BME280;53498;50.422;14.912;2023-06-22T08:20:43;99241.47;;;27.59;66.10
66627;BME280;53498;50.422;14.912;2023-06-22T08:23:09;99243.41;;;27.70;66.75
66627;BME280;53498;50.422;14.912;2023-06-22T08:25:35;99224.78;;;28.21;61.37
66627;BME280;53498;50.422;14.912;2023-06-22T08:28:02;99223.06;;;28.07;61.84
66627;BME280;53498;50.422;14.912;2023-06-22T08:30:28;99226.91;;;28.29;62.40
66627;BME280;53498;50.422;14.912;2023-06-22T08:32:53;99224.38;;;28.40;61.60
66627;BME280;53498;50.422;14.912;2023-06-22T08:35:23;99226.06;;;28.54;59.19
66627;BME280;53498;50.422;14.912;2023-06-22T08:37:48;99232.69;;;27.84;59.90
66627;BME280;53498;50.422;14.912;2023-06-22T08:40:18;99224.28;;;27.76;61.19
66627;BME280;53498;50.422;14.912;2023-06-22T08:42:45;99228.53;;;27.53;60.79
66627;BME280;53498;50.422;14.912;2023-06-22T08:45:12;99224.88;;;27.94;61.14
66627;BME280;53498;50.422;14.912;2023-06-22T08:47:38;99240.84;;;28.21;61.18
66627;BME280;53498;50.422;14.912;2023-06-22T08:50:05;99246.81;;;27.99;58.49
66627;BME280;53498;50.422;14.912;2023-06-22T08:52:31;99241.78;;;28.33;58.64
66627;BME280;53498;50.422;14.912;2023-06-22T08:54:57;99229.50;;;28.30;58.80
66627;BME280;53498;50.422;14.912;2023-06-22T08:57:26;99233.84;;;28.57;59.56
66627;BME280;53498;50.422;14.912;2023-06-22T08:59:52;99238.03;;;28.61;56.73
66627;BME280;53498;50.422;14.912;2023-06-22T09:02:18;99232.69;;;28.35;58.16
66627;BME280;53498;50.422;14.912;2023-06-22T09:04:47;99229.47;;;27.79;59.30
66627;BME280;53498;50.422;14.912;2023-06-22T09:07:14;99234.97;;;27.63;59.49
66627;BME280;53498;50.422;14.912;2023-06-22T09:09:39;99224.03;;;28.06;61.24
66627;BME280;53498;50.422;14.912;2023-06-22T09:12:05;99227.09;;;28.64;59.52
66627;BME280;53498;50.422;14.912;2023-06-22T09:14:31;99225.63;;;28.60;55.81
66627;BME280;53498;50.422;14.912;2023-06-22T09:16:57;99225.00;;;27.93;56.73
66627;BME280;53498;50.422;14.912;2023-06-22T09:19:22;99223.19;;;28.19;58.09
66627;BME280;53498;50.422;14.912;2023-06-22T09:21:48;99218.13;;;28.14;57.60
66627;BME280;53498;50.422;14.912;2023-06-22T09:24:13;99210.00;;;28.28;58.52
66627;BME280;53498;50.422;14.912;2023-06-22T09:26:39;99217.72;;;28.46;56.56
66627;BME280;53498;50.422;14.912;2023-06-22T09:29:05;99218.19;;;28.76;56.85
66627;BME280;53498;50.422;14.912;2023-06-22T09:31:31;99220.38;;;28.95;55.22
66627;BME280;53498;50.422;14.912;2023-06-22T09:33:57;99211.06;;;28.38;55.63
66627;BME280;53498;50.422;14.912;2023-06-22T09:36:22;99208.53;;;28.87;56.78
66627;BME280;53498;50.422;14.912;2023-06-22T09:38:49;99211.25;;;28.98;53.81
66627;BME280;53498;50.422;14.912;2023-06-22T09:41:24;99213.22;;;28.96;53.52
66627;BME280;53498;50.422;14.912;2023-06-22T09:43:50;99212.91;;;29.24;53.10
66627;BME280;53498;50.422;14.912;2023-06-22T09:46:16;99207.78;;;29.21;52.60
66627;BME280;53498;50.422;14.912;2023-06-22T09:48:42;99211.34;;;28.72;54.10
66627;BME280;53498;50.422;14.912;2023-06-22T09:51:08;99199.13;;;29.18;53.45
66627;BME280;53498;50.422;14.912;2023-06-22T09:53:33;99199.34;;;29.15;50.23
66627;BME280;53498;50.422;14.912;2023-06-22T09:56:00;99201.19;;;29.25;49.96
66627;BME280;53498;50.422;14.912;2023-06-22T09:58:27;99193.44;;;29.34;49.04
66627;BME280;53498;50.422;14.912;2023-06-22T10:00:53;99194.47;;;29.44;49.30
66627;BME280;53498;50.422;14.912;2023-06-22T10:03:20;99190.03;;;29.32;51.42
66627;BME280;53498;50.422;14.912;2023-06-22T10:05:46;99181.56;;;29.49;50.44
66627;BME280;53498;50.422;14.912;2023-06-22T10:08:12;99187.97;;;28.87;48.87
66627;BME280;53498;50.422;14.912;2023-06-22T10:10:37;99187.59;;;28.92;48.93
66627;BME280;53498;50.422;14.912;2023-06-22T10:13:08;99193.31;;;29.11;48.20
66627;BME280;53498;50.422;14.912;2023-06-22T10:15:37;99183.28;;;29.50;48.48
66627;BME280;53498;50.422;14.912;2023-06-22T10:18:04;99185.31;;;28.98;48.63
66627;BME280;53498;50.422;14.912;2023-06-22T10:20:30;99186.97;;;29.01;50.31
66627;BME280;53498;50.422;14.912;2023-06-22T10:22:55;99184.38;;;29.23;51.11
66627;BME280;53498;50.422;14.912;2023-06-22T10:25:21;99184.28;;;29.25;47.99
66627;BME280;53498;50.422;14.912;2023-06-22T10:27:47;99179.44;;;29.06;50.60
66627;BME280;53498;50.422;14.912;2023-06-22T10:30:13;99181.53;;;29.14;49.23
66627;BME280;53498;50.422;14.912;2023-06-22T10:32:39;99177.75;;;28.92;48.57
66627;BME280;53498;50.422;14.912;2023-06-22T10:35:06;99171.31;;;28.95;48.82
66627;BME280;53498;50.422;14.912;2023-06-22T10:37:32;99170.06;;;28.88;49.30
66627;BME280;53498;50.422;14.912;2023-06-22T10:39:57;99164.72;;;28.88;49.13
66627;BME280;53498;50.422;14.912;2023-06-22T10:42:23;99156.81;;;29.10;49.33
66627;BME280;53498;50.422;14.912;2023-06-22T10:44:48;99167.25;;;28.89;48.97
66627;BME280;53498;50.422;14.912;2023-06-22T10:47:14;99168.63;;;28.95;49.37
66627;BME280;53498;50.422;14.912;2023-06-22T10:49:40;99162.31;;;28.96;48.13
66627;BME280;53498;50.422;14.912;2023-06-22T10:52:07;99168.72;;;29.06;48.98
66627;BME280;53498;50.422;14.912;2023-06-22T10:54:33;99166.56;;;28.98;48.64
66627;BME280;53498;50.422;14.912;2023-06-22T10:57:00;99161.63;;;29.29;49.00
66627;BME280;53498;50.422;14.912;2023-06-22T10:59:25;99160.09;;;29.38;46.42
66627;BME280;53498;50.422;14.912;2023-06-22T11:01:52;99156.31;;;29.40;47.12
66627;BME280;53498;50.422;14.912;2023-06-22T11:04:18;99148.66;;;29.47;47.10
66627;BME280;53498;50.422;14.912;2023-06-22T11:06:43;99150.13;;;29.40;48.27
66627;BME280;53498;50.422;14.912;2023-06-22T11:09:09;99155.69;;;29.37;47.96
66627;BME280;53498;50.422;14.912;2023-06-22T11:11:34;99150.13;;;29.40;48.21
66627;BME280;53498;50.422;14.912;2023-06-22T11:14:00;99141.59;;;29.57;47.95
66627;BME280;53498;50.422;14.912;2023-06-22T11:16:27;99140.19;;;29.64;48.45
66627;BME280;53498;50.422;14.912;2023-06-22T11:18:52;99138.09;;;29.57;48.98
66627;BME280;53498;50.422;14.912;2023-06-22T11:21:18;99141.59;;;29.46;48.71
66627;BME280;53498;50.422;14.912;2023-06-22T11:23:43;99132.28;;;29.74;48.11
66627;BME280;53498;50.422;14.912;2023-06-22T11:26:09;99131.81;;;29.34;49.11
66627;BME280;53498;50.422;14.912;2023-06-22T11:28:34;99132.63;;;28.99;50.10
66627;BME280;53498;50.422;14.912;2023-06-22T11:31:00;99135.25;;;29.47;50.38
66627;BME280;53498;50.422;14.912;2023-06-22T11:33:25;99130.03;;;29.57;49.94
66627;BME280;53498;50.422;14.912;2023-06-22T11:35:51;99134.72;;;29.31;48.81
66627;BME280;53498;50.422;14.912;2023-06-22T11:38:17;99125.03;;;29.05;50.02
66627;BME280;53498;50.422;14.912;2023-06-22T11:40:42;99125.16;;;28.91;50.49
66627;BME280;53498;50.422;14.912;2023-06-22T11:43:08;99121.75;;;29.13;50.38
66627;BME280;53498;50.422;14.912;2023-06-22T11:45:33;99110.88;;;29.39;49.70
66627;BME280;53498;50.422;14.912;2023-06-22T11:47:59;99115.81;;;29.67;48.07
66627;BME280;53498;50.422;14.912;2023-06-22T11:50:24;99107.16;;;29.64;48.46
66627;BME280;53498;50.422;14.912;2023-06-22T11:52:50;99102.84;;;29.50;48.80
66627;BME280;53498;50.422;14.912;2023-06-22T11:55:18;99102.13;;;29.48;49.59
66627;BME280;53498;50.422;14.912;2023-06-22T11:57:55;99116.59;;;29.81;48.58
66627;BME280;53498;50.422;14.912;2023-06-22T12:00:21;99108.53;;;30.03;46.20
66627;BME280;53498;50.422;14.912;2023-06-22T12:02:50;99097.19;;;29.88;45.80
66627;BME280;53498;50.422;14.912;2023-06-22T12:05:20;99096.56;;;29.73;46.93
66627;BME280;53498;50.422;14.912;2023-06-22T12:07:50;99097.91;;;29.79;47.21
66627;BME280;53498;50.422;14.912;2023-06-22T12:10:18;99092.81;;;29.87;48.22
66627;BME280;53498;50.422;14.912;2023-06-22T12:12:44;99090.25;;;30.19;47.40
66627;BME280;53498;50.422;14.912;2023-06-22T12:15:10;99088.31;;;30.22;47.04
66627;BME280;53498;50.422;14.912;2023-06-22T12:17:35;99094.88;;;30.29;46.05
66627;BME280;53498;50.422;14.912;2023-06-22T12:20:02;99092.31;;;30.27;45.94
66627;BME280;53498;50.422;14.912;2023-06-22T12:22:31;99087.69;;;30.18;45.06
66627;BME280;53498;50.422;14.912;2023-06-22T12:24:57;99084.41;;;30.26;44.88
66627;BME280;53498;50.422;14.912;2023-06-22T12:27:23;99071.91;;;30.47;44.58
66627;BME280;53498;50.422;14.912;2023-06-22T12:29:48;99081.41;;;30.51;44.28
66627;BME280;53498;50.422;14.912;2023-06-22T12:32:14;99074.84;;;30.44;44.00
66627;BME280;53498;50.422;14.912;2023-06-22T12:34:41;99068.06;;;29.84;44.77
66627;BME280;53498;50.422;14.912;2023-06-22T12:37:07;99076.22;;;29.82;45.42
66627;BME280;53498;50.422;14.912;2023-06-22T12:39:33;99078.41;;;30.11;44.85
66627;BME280;53498;50.422;14.912;2023-06-22T12:41:58;99075.75;;;30.00;44.29
66627;BME280;53498;50.422;14.912;2023-06-22T12:44:24;99079.63;;;30.07;44.71
66627;BME280;53498;50.422;14.912;2023-06-22T12:46:50;99071.94;;;30.13;45.47
66627;BME280;53498;50.422;14.912;2023-06-22T12:49:15;99074.50;;;30.26;43.88